JCJ YTYA-YDPO

Flight info

Callsign JCJ
Flight time 0h 58m
Altitude 5000
Route SUNTI H169 AHOSK
Aircraft BE58/L-SDFGRY/C

Departure

Time 2026-04-24 10:32
Airport Tyabb Airport (YTYA)

Arrival

Time 2026-04-24 11:31
Airport Devonport Airport (YDPO)
Time Latitude Longitude Altitude Speed Heading
2026-04-24 10:25 -38.26405 145.18042 82 ft 0 kts 34°
2026-04-24 10:28 -38.26405 145.18024 82 ft 6 kts 183°
2026-04-24 10:28 -38.26453 145.18025 82 ft 7 kts 184°
2026-04-24 10:28 -38.26510 145.18024 82 ft 8 kts 180°
2026-04-24 10:28 -38.26572 145.18024 82 ft 9 kts 180°
2026-04-24 10:29 -38.26639 145.18024 82 ft 10 kts 179°
2026-04-24 10:29 -38.26713 145.18024 81 ft 11 kts 180°
2026-04-24 10:29 -38.26802 145.18024 79 ft 13 kts 179°
2026-04-24 10:29 -38.26885 145.18025 78 ft 11 kts 180°
2026-04-24 10:30 -38.26971 145.18025 76 ft 13 kts 179°
2026-04-24 10:30 -38.27065 145.18025 75 ft 11 kts 179°
2026-04-24 10:30 -38.27144 145.18025 75 ft 11 kts 179°
2026-04-24 10:30 -38.27169 145.18027 75 ft 0 kts 181°
2026-04-24 10:31 -38.27170 145.18027 75 ft 1 kts 182°
2026-04-24 10:31 -38.27202 145.18002 74 ft 7 kts 244°
2026-04-24 10:31 -38.27185 145.17950 76 ft 6 kts 348°
2026-04-24 10:32 -38.26952 145.17958 78 ft 74 kts
2026-04-24 10:32 -38.26314 145.17981 312 ft 99 kts
2026-04-24 10:32 -38.25650 145.18050 862 ft 93 kts
2026-04-24 10:32 -38.25051 145.18080 1422 ft 85 kts 353°
2026-04-24 10:33 -38.24486 145.18170 1796 ft 97 kts 26°
2026-04-24 10:33 -38.24066 145.18945 2095 ft 121 kts 70°
2026-04-24 10:33 -38.24229 145.20042 2443 ft 136 kts 117°
2026-04-24 10:33 -38.24987 145.20787 2806 ft 143 kts 162°
2026-04-24 10:34 -38.25969 145.20750 3179 ft 142 kts 202°
2026-04-24 10:34 -38.26881 145.20306 3550 ft 141 kts 207°
2026-04-24 10:34 -38.27774 145.19833 3924 ft 140 kts 207°
2026-04-24 10:34 -38.28671 145.19356 4295 ft 139 kts 207°
2026-04-24 10:35 -38.29554 145.18887 4662 ft 139 kts 206°
2026-04-24 10:35 -38.30494 145.18564 5031 ft 140 kts 191°
2026-04-24 10:35 -38.31556 145.18472 4997 ft 166 kts 181°
2026-04-24 10:35 -38.32760 145.18543 4976 ft 179 kts 177°
2026-04-24 10:36 -38.34026 145.18697 4970 ft 186 kts 175°
2026-04-24 10:36 -38.35329 145.18887 4970 ft 192 kts 174°
2026-04-24 10:36 -38.36678 145.19098 4972 ft 197 kts 174°
2026-04-24 10:36 -38.38066 145.19318 4970 ft 201 kts 174°
2026-04-24 10:37 -38.39461 145.19540 4966 ft 203 kts 174°
2026-04-24 10:37 -38.40863 145.19765 4962 ft 204 kts 173°
2026-04-24 10:37 -38.42285 145.19992 4963 ft 206 kts 173°
2026-04-24 10:37 -38.43698 145.20218 4966 ft 204 kts 173°
2026-04-24 10:38 -38.45109 145.20444 4968 ft 203 kts 173°
2026-04-24 10:38 -38.46497 145.20666 4981 ft 202 kts 174°
2026-04-24 10:38 -38.47897 145.20891 4981 ft 201 kts 174°
2026-04-24 10:38 -38.49290 145.21114 4976 ft 201 kts 174°
2026-04-24 10:39 -38.50680 145.21356 4978 ft 202 kts 168°
2026-04-24 10:39 -38.52028 145.21887 4986 ft 202 kts 161°
2026-04-24 10:39 -38.53361 145.22481 4983 ft 203 kts 161°
2026-04-24 10:39 -38.54698 145.23071 4982 ft 204 kts 161°
2026-04-24 10:40 -38.56043 145.23663 4986 ft 204 kts 161°
2026-04-24 10:40 -38.57393 145.24257 4986 ft 205 kts 161°
2026-04-24 10:40 -38.58748 145.24854 4984 ft 205 kts 161°
2026-04-24 10:40 -38.60103 145.25449 4980 ft 206 kts 161°
2026-04-24 10:41 -38.61463 145.26048 4979 ft 206 kts 161°
2026-04-24 10:41 -38.62806 145.26639 4982 ft 207 kts 161°
2026-04-24 10:41 -38.64178 145.27243 4982 ft 208 kts 161°
2026-04-24 10:41 -38.65547 145.27847 4982 ft 208 kts 161°
2026-04-24 10:42 -38.66927 145.28455 4997 ft 202 kts 161°
2026-04-24 10:42 -38.68269 145.29047 4981 ft 205 kts 161°
2026-04-24 10:42 -38.69622 145.29645 4982 ft 207 kts 161°
2026-04-24 10:42 -38.71008 145.30255 4981 ft 209 kts 161°
2026-04-24 10:43 -38.72370 145.30858 4982 ft 210 kts 161°
2026-04-24 10:43 -38.73760 145.31471 4983 ft 208 kts 161°
2026-04-24 10:43 -38.75131 145.32075 4985 ft 208 kts 161°
2026-04-24 10:43 -38.76506 145.32683 4989 ft 208 kts 161°
2026-04-24 10:44 -38.77875 145.33287 4986 ft 208 kts 161°
2026-04-24 10:44 -38.79237 145.33890 4990 ft 209 kts 161°
2026-04-24 10:44 -38.80620 145.34502 4991 ft 210 kts 161°
2026-04-24 10:44 -38.82013 145.35118 4984 ft 210 kts 161°
2026-04-24 10:45 -38.83403 145.35735 4984 ft 211 kts 161°
2026-04-24 10:45 -38.84794 145.36351 4982 ft 212 kts 161°
2026-04-24 10:45 -38.86189 145.36969 4977 ft 212 kts 161°
2026-04-24 10:45 -38.87569 145.37581 4974 ft 208 kts 161°
2026-04-24 10:46 -38.88933 145.38187 4972 ft 206 kts 161°
2026-04-24 10:46 -38.90271 145.38782 4974 ft 205 kts 161°
2026-04-24 10:46 -38.91624 145.39381 4980 ft 205 kts 161°
2026-04-24 10:46 -38.92986 145.39987 4979 ft 206 kts 161°
2026-04-24 10:47 -38.94334 145.40587 4978 ft 206 kts 161°
2026-04-24 10:47 -38.95696 145.41191 4978 ft 207 kts 161°
2026-04-24 10:47 -38.97056 145.41797 4977 ft 207 kts 161°
2026-04-24 10:47 -38.98435 145.42410 4977 ft 208 kts 161°
2026-04-24 10:48 -38.99811 145.43024 4979 ft 209 kts 161°
2026-04-24 10:48 -39.01174 145.43630 4980 ft 209 kts 161°
2026-04-24 10:48 -39.02565 145.44249 4979 ft 210 kts 161°
2026-04-24 10:48 -39.03933 145.44859 4981 ft 210 kts 161°
2026-04-24 10:49 -39.05324 145.45480 4981 ft 211 kts 161°
2026-04-24 10:49 -39.06705 145.46095 4979 ft 211 kts 161°
2026-04-24 10:49 -39.08094 145.46716 4979 ft 211 kts 161°
2026-04-24 10:49 -39.09496 145.47342 4981 ft 212 kts 161°
2026-04-24 10:50 -39.10881 145.47960 4979 ft 212 kts 161°
2026-04-24 10:50 -39.12294 145.48592 4981 ft 213 kts 162°
2026-04-24 10:50 -39.13679 145.49211 4981 ft 213 kts 161°
2026-04-24 10:50 -39.15080 145.49837 4982 ft 213 kts 161°
2026-04-24 10:51 -39.16497 145.50472 4982 ft 213 kts 161°
2026-04-24 10:51 -39.17905 145.51100 4983 ft 214 kts 161°
2026-04-24 10:51 -39.19310 145.51730 4982 ft 213 kts 161°
2026-04-24 10:51 -39.20705 145.52356 4981 ft 213 kts 161°
2026-04-24 10:52 -39.22099 145.52980 4981 ft 213 kts 161°
2026-04-24 10:52 -39.23520 145.53618 4978 ft 213 kts 162°
2026-04-24 10:52 -39.24915 145.54244 4976 ft 213 kts 161°
2026-04-24 10:52 -39.26315 145.54872 4975 ft 213 kts 161°
2026-04-24 10:53 -39.27724 145.55504 4975 ft 213 kts 161°
2026-04-24 10:53 -39.29131 145.56136 4975 ft 213 kts 162°
2026-04-24 10:53 -39.30529 145.56764 4974 ft 214 kts 162°
2026-04-24 10:53 -39.31938 145.57397 4975 ft 214 kts 162°
2026-04-24 10:54 -39.33337 145.58026 4975 ft 214 kts 162°
2026-04-24 10:54 -39.34750 145.58662 4975 ft 214 kts 162°
2026-04-24 10:54 -39.36153 145.59294 4975 ft 214 kts 162°
2026-04-24 10:54 -39.37562 145.59929 4974 ft 214 kts 162°
2026-04-24 10:55 -39.38969 145.60562 4976 ft 213 kts 162°
2026-04-24 10:55 -39.40379 145.61197 4979 ft 213 kts 162°
2026-04-24 10:55 -39.41767 145.61824 4983 ft 213 kts 162°
2026-04-24 10:55 -39.43160 145.62529 4985 ft 213 kts 157°
2026-04-24 10:56 -39.44518 145.63316 4987 ft 214 kts 156°
2026-04-24 10:56 -39.45862 145.64108 4986 ft 214 kts 156°
2026-04-24 10:56 -39.47219 145.64916 4985 ft 213 kts 156°
2026-04-24 10:56 -39.48573 145.65724 4983 ft 214 kts 155°
2026-04-24 10:57 -39.49914 145.66527 4983 ft 213 kts 155°
2026-04-24 10:57 -39.51267 145.67339 4983 ft 213 kts 155°
2026-04-24 10:57 -39.52616 145.68149 4984 ft 214 kts 155°
2026-04-24 10:57 -39.53966 145.68961 4985 ft 214 kts 155°
2026-04-24 10:58 -39.55305 145.69765 4984 ft 214 kts 155°
2026-04-24 10:58 -39.56655 145.70577 4983 ft 214 kts 155°
2026-04-24 10:58 -39.58006 145.71390 4984 ft 214 kts 155°
2026-04-24 10:58 -39.59365 145.72209 4984 ft 214 kts 155°
2026-04-24 10:59 -39.60704 145.73016 4982 ft 214 kts 155°
2026-04-24 10:59 -39.62066 145.73837 4982 ft 214 kts 155°
2026-04-24 10:59 -39.63402 145.74643 4980 ft 214 kts 155°
2026-04-24 10:59 -39.64764 145.75464 4981 ft 214 kts 155°
2026-04-24 11:00 -39.66103 145.76271 4982 ft 214 kts 155°
2026-04-24 11:00 -39.67457 145.77089 4984 ft 213 kts 155°
2026-04-24 11:00 -39.68800 145.77901 4987 ft 213 kts 155°
2026-04-24 11:00 -39.70135 145.78708 4988 ft 213 kts 155°
2026-04-24 11:01 -39.71489 145.79526 4989 ft 213 kts 155°
2026-04-24 11:01 -39.72839 145.80342 4991 ft 213 kts 155°
2026-04-24 11:01 -39.74170 145.81148 4991 ft 213 kts 155°
2026-04-24 11:01 -39.75524 145.81967 4994 ft 213 kts 156°
2026-04-24 11:02 -39.76866 145.82781 4991 ft 213 kts 155°
2026-04-24 11:02 -39.78208 145.83592 4989 ft 213 kts 155°
2026-04-24 11:02 -39.79572 145.84419 4986 ft 213 kts 155°
2026-04-24 11:02 -39.80905 145.85228 4987 ft 213 kts 155°
2026-04-24 11:03 -39.82262 145.86052 4988 ft 213 kts 156°
2026-04-24 11:03 -39.83600 145.86864 4989 ft 213 kts 156°
2026-04-24 11:03 -39.84957 145.87688 4987 ft 214 kts 156°
2026-04-24 11:03 -39.86309 145.88509 4984 ft 214 kts 156°
2026-04-24 11:04 -39.87647 145.89322 4980 ft 214 kts 156°
2026-04-24 11:04 -39.89004 145.90147 4979 ft 214 kts 156°
2026-04-24 11:04 -39.90346 145.90962 4977 ft 214 kts 155°
2026-04-24 11:04 -39.91687 145.91779 4977 ft 214 kts 155°
2026-04-24 11:05 -39.93050 145.92609 4974 ft 214 kts 156°
2026-04-24 11:05 -39.94392 145.93425 4974 ft 214 kts 156°
2026-04-24 11:05 -39.95734 145.94244 4978 ft 214 kts 156°
2026-04-24 11:05 -39.97076 145.95062 4975 ft 213 kts 156°
2026-04-24 11:06 -39.98429 145.95888 4979 ft 213 kts 156°
2026-04-24 11:06 -39.99778 145.96710 4979 ft 213 kts 156°
2026-04-24 11:06 -40.01109 145.97523 4979 ft 213 kts 156°
2026-04-24 11:06 -40.02455 145.98344 4979 ft 213 kts 156°
2026-04-24 11:07 -40.05146 145.99989 4982 ft 213 kts 156°
2026-04-24 11:07 -40.06474 146.00801 4979 ft 214 kts 156°
2026-04-24 11:07 -40.07832 146.01631 4979 ft 214 kts 156°
2026-04-24 11:08 -40.09184 146.02458 4979 ft 214 kts 156°
2026-04-24 11:08 -40.10518 146.03275 4978 ft 214 kts 156°
2026-04-24 11:08 -40.11865 146.04100 4977 ft 213 kts 156°
2026-04-24 11:08 -40.13213 146.04925 4976 ft 213 kts 156°
2026-04-24 11:09 -40.14547 146.05745 4975 ft 212 kts 156°
2026-04-24 11:09 -40.15884 146.06564 4977 ft 212 kts 156°
2026-04-24 11:09 -40.17220 146.07384 4977 ft 212 kts 156°
2026-04-24 11:09 -40.18569 146.08212 4975 ft 212 kts 156°
2026-04-24 11:10 -40.19894 146.09026 4977 ft 212 kts 156°
2026-04-24 11:10 -40.21228 146.09845 4976 ft 212 kts 156°
2026-04-24 11:10 -40.22572 146.10672 4980 ft 212 kts 156°
2026-04-24 11:10 -40.23901 146.11488 4977 ft 212 kts 156°
2026-04-24 11:11 -40.25241 146.12312 4984 ft 212 kts 156°
2026-04-24 11:11 -40.26584 146.13139 4981 ft 213 kts 156°
2026-04-24 11:11 -40.27928 146.13968 4982 ft 213 kts 156°
2026-04-24 11:11 -40.29270 146.14793 4984 ft 213 kts 156°
2026-04-24 11:12 -40.30596 146.15611 4984 ft 212 kts 156°
2026-04-24 11:12 -40.31935 146.16437 4982 ft 212 kts 156°
2026-04-24 11:12 -40.33261 146.17255 4985 ft 212 kts 156°
2026-04-24 11:12 -40.34604 146.18083 4989 ft 212 kts 156°
2026-04-24 11:13 -40.35927 146.18900 4991 ft 211 kts 156°
2026-04-24 11:13 -40.37259 146.19722 4988 ft 212 kts 156°
2026-04-24 11:13 -40.38597 146.20549 4991 ft 211 kts 156°
2026-04-24 11:13 -40.39936 146.21378 4996 ft 212 kts 156°
2026-04-24 11:14 -40.41260 146.22197 4998 ft 212 kts 156°
2026-04-24 11:14 -40.42602 146.23027 4996 ft 212 kts 156°
2026-04-24 11:14 -40.43938 146.23854 4997 ft 212 kts 156°
2026-04-24 11:14 -40.45263 146.24674 4998 ft 212 kts 156°
2026-04-24 11:15 -40.46594 146.25499 4996 ft 212 kts 156°
2026-04-24 11:15 -40.47924 146.26323 4994 ft 212 kts 156°
2026-04-24 11:15 -40.49268 146.27156 4990 ft 211 kts 156°
2026-04-24 11:15 -40.50598 146.27982 4989 ft 211 kts 156°
2026-04-24 11:16 -40.51928 146.28807 4993 ft 212 kts 156°
2026-04-24 11:16 -40.53264 146.29636 4989 ft 212 kts 156°
2026-04-24 11:16 -40.54595 146.30463 4986 ft 212 kts 156°
2026-04-24 11:16 -40.55934 146.31296 4980 ft 212 kts 156°
2026-04-24 11:17 -40.57269 146.32124 4980 ft 212 kts 156°
2026-04-24 11:17 -40.58599 146.32953 4981 ft 212 kts 156°
2026-04-24 11:17 -40.59922 146.33775 4979 ft 212 kts 156°
2026-04-24 11:17 -40.61253 146.34604 4976 ft 211 kts 156°
2026-04-24 11:18 -40.62590 146.35437 4977 ft 211 kts 156°
2026-04-24 11:18 -40.63924 146.36269 4978 ft 211 kts 156°
2026-04-24 11:18 -40.65253 146.37097 4975 ft 212 kts 157°
2026-04-24 11:18 -40.66596 146.37935 4970 ft 212 kts 156°
2026-04-24 11:19 -40.67922 146.38762 4974 ft 212 kts 157°
2026-04-24 11:19 -40.69255 146.39595 4970 ft 212 kts 156°
2026-04-24 11:19 -40.70589 146.40430 4966 ft 212 kts 156°
2026-04-24 11:19 -40.71919 146.41261 4968 ft 212 kts 156°
2026-04-24 11:20 -40.73246 146.42091 4968 ft 212 kts 156°
2026-04-24 11:20 -40.74586 146.42929 4972 ft 212 kts 156°
2026-04-24 11:20 -40.75914 146.43761 4976 ft 212 kts 156°
2026-04-24 11:20 -40.77246 146.44594 4972 ft 212 kts 156°
2026-04-24 11:21 -40.78588 146.45435 4971 ft 211 kts 156°
2026-04-24 11:21 -40.79914 146.46265 4973 ft 211 kts 156°
2026-04-24 11:21 -40.81250 146.47102 4971 ft 211 kts 156°
2026-04-24 11:21 -40.82562 146.47925 4971 ft 211 kts 156°
2026-04-24 11:22 -40.83890 146.48758 4972 ft 211 kts 156°
2026-04-24 11:22 -40.85230 146.49600 4975 ft 211 kts 156°
2026-04-24 11:22 -40.86558 146.50432 4977 ft 212 kts 156°
2026-04-24 11:22 -40.87882 146.51265 4977 ft 212 kts 156°
2026-04-24 11:23 -40.89224 146.52107 4971 ft 212 kts 157°
2026-04-24 11:23 -40.90562 146.52949 4968 ft 212 kts 157°
2026-04-24 11:23 -40.91885 146.53781 4969 ft 211 kts 157°
2026-04-24 11:23 -40.93209 146.54614 4973 ft 211 kts 157°
2026-04-24 11:24 -40.94544 146.55455 4974 ft 211 kts 157°
2026-04-24 11:24 -40.95873 146.56291 4974 ft 211 kts 156°
2026-04-24 11:24 -40.97186 146.57118 4978 ft 211 kts 156°
2026-04-24 11:24 -40.98523 146.57960 4983 ft 211 kts 156°
2026-04-24 11:25 -40.99844 146.58795 4982 ft 211 kts 156°
2026-04-24 11:25 -41.01173 146.59633 4980 ft 211 kts 156°
2026-04-24 11:25 -41.02502 146.60472 4979 ft 211 kts 156°
2026-04-24 11:25 -41.03845 146.61151 4976 ft 209 kts 172°
2026-04-24 11:26 -41.05288 146.61386 4979 ft 208 kts 178°
2026-04-24 11:26 -41.06744 146.61577 4974 ft 208 kts 178°
2026-04-24 11:26 -41.08184 146.61772 4972 ft 208 kts 178°
2026-04-24 11:26 -41.09626 146.61845 4097 ft 231 kts 195°
2026-04-24 11:27 -41.10920 146.60672 3188 ft 225 kts 237°
2026-04-24 11:27 -41.11592 146.58855 2440 ft 217 kts 250°
2026-04-24 11:27 -41.12160 146.57201 2160 ft 181 kts 249°
2026-04-24 11:27 -41.12667 146.55783 1923 ft 159 kts 249°
2026-04-24 11:28 -41.13134 146.54489 1719 ft 155 kts 248°
2026-04-24 11:28 -41.13586 146.53250 1512 ft 139 kts 248°
2026-04-24 11:28 -41.13987 146.52159 1338 ft 128 kts 248°
2026-04-24 11:28 -41.14367 146.51121 1170 ft 120 kts 248°
2026-04-24 11:29 -41.14700 146.50218 1038 ft 99 kts 248°
2026-04-24 11:29 -41.14990 146.49425 907 ft 95 kts 248°
2026-04-24 11:29 -41.15287 146.48612 778 ft 98 kts 246°
2026-04-24 11:29 -41.15588 146.47794 647 ft 100 kts 246°
2026-04-24 11:30 -41.15894 146.46971 527 ft 100 kts 246°
2026-04-24 11:30 -41.16180 146.46133 406 ft 99 kts 254°
2026-04-24 11:30 -41.16355 146.45259 267 ft 99 kts 258°
2026-04-24 11:30 -41.16513 146.44368 115 ft 100 kts 255°
2026-04-24 11:31 -41.16673 146.43529 24 ft 74 kts 256°
2026-04-24 11:31 -41.16747 146.43115 25 ft 34 kts 255°
2026-04-24 11:31 -41.16800 146.42837 26 ft 27 kts 256°